Buoy 46770

sailwx.info

Track history (hours):
 
Tides and Currents Weather Stations Pressure Air Temp Water Temp Dewpoint Dewpoint Depression Visibility Wind Speed Wind Dir Waves Ship Positions

Drifting buoy 46770

Last reported at 2014-Sep-16 00:30 UTC. Time now 2014-Sep-16 03:01 UTC.
Position N 50°25' E 169°50'.

Barometer 1011.3 mb
Water temperature 11.4 ° C

Date/timePositionNaut miles runAvg speedWind from/ knotsBaromVisibWave heightAir tempDewpointWater temp
2014-Sep-16 00:30N 50°25' E 169°50'1 1.3 1011.3 11.4
2014-Sep-15 23:30N 50°25' E 169°52'0 0.0 1011.5 11.3
2014-Sep-15 22:30N 50°25' E 169°52'4 0.9 1011.6 11.3
2014-Sep-15 18:30N 50°28' E 169°56'1 0.5 1011.2 11.2
2014-Sep-15 16:30N 50°29' E 169°56'0 0.3 1010.8 11.2
2014-Sep-15 15:30N 50°29' E 169°57'1 1.0 1010.6 11.2
2014-Sep-15 14:30N 50°29' E 169°58'5 4.9 1010.4 11.2
2014-Sep-15 13:30N 50°30' E 170°06'0 0.0 1010.6 11.2
2014-Sep-15 12:30N 50°30' E 170°06'0 0.0 1010.2 11.2
2014-Sep-15 10:30N 50°30' E 170°06'2 0.6 1010.2 11.2
2014-Sep-15 07:30N 50°32' E 170°08'1 1.4 1008.4 11.2
2014-Sep-15 06:30N 50°33' E 170°09'2 0.6 1007.9 11.3
2014-Sep-15 03:30N 50°34' E 170°12'1 0.3 1006.9 11.2
2014-Sep-15 01:30N 50°34' E 170°12'0 0.0 1006.2 11.2
2014-Sep-15 00:30N 50°34' E 170°12'0 0.0 1006.3 11.2
2014-Sep-14 23:30N 50°34' E 170°12'6 2.0 1006.4 11.2
2014-Sep-14 20:30N 50°35' E 170°21'0 0.1 1006.3 11.2
2014-Sep-14 19:30N 50°35' E 170°21'0 0.3 1006.5 11.2
2014-Sep-14 18:30N 50°36' E 170°21'7 1.3 1006.5 11.2
2014-Sep-14 13:30N 50°39' E 170°30'0 0.0 1008.7 11.3
2014-Sep-14 09:30N 50°39' E 170°30'0 0.3 1010.7 11.6
2014-Sep-14 08:30N 50°39' E 170°30'2 2.2 1010.5 11.6
2014-Sep-14 07:30N 50°40' E 170°33'2 0.6 1010.7 11.6
2014-Sep-14 04:30N 50°40' E 170°36'0 0.3 1011.9 11.6
2014-Sep-14 03:30N 50°40' E 170°36'1 0.7 1012.2 11.6
2014-Sep-14 01:30N 50°41' E 170°38'4 0.6 1013.7 11.6
2014-Sep-13 18:30N 50°44' E 170°44'0 0.3 1015.8 11.1
2014-Sep-13 17:30N 50°43' E 170°44'1 0.3 1015.5 11.1
2014-Sep-13 15:30N 50°44' E 170°45'6 0.8 1016.2 11.1
2014-Sep-13 08:30N 50°47' E 170°53'3 0.7 1016.6 11.2
2014-Sep-13 04:30N 50°48' E 170°56'0 0.0 1015.6 11.2
2014-Sep-13 03:30N 50°48' E 170°56'0 0.1 1015.2 11.2
2014-Sep-13 02:30N 50°48' E 170°56'2 2.0 1015.0 11.2
2014-Sep-13 01:30N 50°49' E 170°59'5 0.6 1014.9 11.1
2014-Sep-12 17:30N 50°52' E 171°04'1 0.3 1013.2 11.1
2014-Sep-12 15:30N 50°53' E 171°04'3 0.3 1012.9 11.1
2014-Sep-12 07:30N 50°54' E 171°08'4 0.9 1010.8 11.2
2014-Sep-12 03:30N 50°57' E 171°12'0 0.0 1009.8 11.2
2014-Sep-12 01:30N 50°57' E 171°12'3 0.4 1009.3 11.2
2014-Sep-11 18:30N 50°59' E 171°14'0 0.2 1006.5 11.2
2014-Sep-11 16:30N 50°60' E 171°15'4 4.3 1005.4 11.2
2014-Sep-11 15:30N 51°03' E 171°18'0 0.0 1004.9 11.3
2014-Sep-11 14:30N 51°03' E 171°18'1 0.1 1004.4 11.3
2014-Sep-11 02:30N 51°04' E 171°19'0 0.2 1002.0 11.3
2014-Sep-11 00:30N 51°05' E 171°20'2 1.6 1002.3 11.3
2014-Sep-10 23:30N 51°06' E 171°21'0 0.0 1002.5 11.3
2014-Sep-10 22:30N 51°06' E 171°21'1 0.3 1002.8 11.3
2014-Sep-10 19:30N 51°07' E 171°22'1 0.3 1002.9 11.3
2014-Sep-10 16:30N 51°08' E 171°22'1 0.3 1002.7 11.3
2014-Sep-10 14:30N 51°08' E 171°23'1 0.2 1002.8 11.3
2014-Sep-10 08:30N 51°09' E 171°23'2 0.5 1003.3 11.3
2014-Sep-10 03:30N 51°11' E 171°25'2 0.8 1001.6 11.3
2014-Sep-10 00:30N 51°13' E 171°23'0 0.1 1001.6 11.3
2014-Sep-09 21:30N 51°13' E 171°23'0 0.1 1002.2 11.3
2014-Sep-09 19:30N 51°13' E 171°23'0 0.4 1002.4 11.3
2014-Sep-09 18:30N 51°14' E 171°23'2 0.9 1002.4 11.3
2014-Sep-09 16:30N 51°15' E 171°24'0 0.0 1001.9 11.3
2014-Sep-09 15:30N 51°15' E 171°24'2 0.3 1001.3 11.3
2014-Sep-09 09:30N 51°16' E 171°22'0 0.3 1004.0 11.3
2014-Sep-09 08:30N 51°17' E 171°22'1 0.2 1004.2 11.3
2014-Sep-09 01:30N 51°17' E 171°24'1 0.7 1005.0 11.2
2014-Sep-09 00:30N 51°18' E 171°24'2 1.1 1004.9 11.2
2014-Sep-08 22:30N 51°20' E 171°23'0 0.0 1004.9 11.2
2014-Sep-08 20:30N 51°20' E 171°23'0 0.0 1004.5 11.2
2014-Sep-08 18:30N 51°20' E 171°23'1 0.4 1003.8 11.2
2014-Sep-08 16:30N 51°21' E 171°23'4 0.3 1003.1 11.2
2014-Sep-08 05:30N 51°24' E 171°23'0 0.2 999.8 11.2
2014-Sep-08 03:30N 51°24' E 171°22'0 0.4 998.9 11.2
2014-Sep-08 02:30N 51°24' E 171°23'1 0.5 998.7 11.2
2014-Sep-08 01:30N 51°25' E 171°22'4 0.5 998.7 11.2
2014-Sep-07 17:30N 51°29' E 171°23'1 0.6 996.6 11.2
2014-Sep-07 15:30N 51°30' E 171°23'2 0.9 996.6 11.2
2014-Sep-07 13:30N 51°32' E 171°22'0 0.0 996.9 11.3
2014-Sep-07 09:30N 51°32' E 171°22'1 0.3 998.0 11.4
2014-Sep-07 07:30N 51°32' E 171°23'2 0.5 998.2 11.4
2014-Sep-07 03:30N 51°34' E 171°23'1 1.0 999.2 11.5
2014-Sep-07 02:30N 51°35' E 171°23'0 0.1 999.9 11.5
2014-Sep-07 00:30N 51°35' E 171°23'1 0.3 1000.8 11.5
2014-Sep-06 19:30N 51°36' E 171°22'0 0.2 1003.2 11.5
2014-Sep-06 17:30N 51°36' E 171°22'1 0.5 1003.2 11.5
2014-Sep-06 14:30N 51°37' E 171°24'1 1.0 1004.6 11.6
2014-Sep-06 13:30N 51°38' E 171°24'1 0.2 1005.0 11.6
2014-Sep-06 09:30N 51°39' E 171°24'0 0.5 1006.7 11.6
2014-Sep-06 08:30N 51°39' E 171°23'0 0.0 1006.8 11.6
2014-Sep-06 07:30N 51°39' E 171°23'1 0.9 1006.8 11.6
2014-Sep-06 06:30N 51°39' E 171°22'0 0.0 1006.9 11.6
2014-Sep-06 04:30N 51°39' E 171°22'0 0.1 1007.4 11.6
2014-Sep-06 01:30N 51°39' E 171°23'   1008.2 11.6
Track history (hours):
 
Tides and Currents Weather Stations Pressure Air Temp Water Temp Dewpoint Dewpoint Depression Visibility Wind Speed Wind Dir Waves Ship Positions

Drifting buoy 46770

Last reported at 2014-Sep-16 00:30 UTC. Time now 2014-Sep-16 03:01 UTC.
Position N 50°25' E 169°50'.

Barometer 1011.3 mb
Water temperature 11.4 ° C

Date/timePositionNaut miles runAvg speedWind from/ knotsBaromVisibWave heightAir tempDewpointWater temp
2014-Sep-16 00:30N 50°25' E 169°50'1 1.3 1011.3 11.4
2014-Sep-15 23:30N 50°25' E 169°52'0 0.0 1011.5 11.3
2014-Sep-15 22:30N 50°25' E 169°52'4 0.9 1011.6 11.3
2014-Sep-15 18:30N 50°28' E 169°56'1 0.5 1011.2 11.2
2014-Sep-15 16:30N 50°29' E 169°56'0 0.3 1010.8 11.2
2014-Sep-15 15:30N 50°29' E 169°57'1 1.0 1010.6 11.2
2014-Sep-15 14:30N 50°29' E 169°58'5 4.9 1010.4 11.2
2014-Sep-15 13:30N 50°30' E 170°06'0 0.0 1010.6 11.2
2014-Sep-15 12:30N 50°30' E 170°06'0 0.0 1010.2 11.2
2014-Sep-15 10:30N 50°30' E 170°06'2 0.6 1010.2 11.2
2014-Sep-15 07:30N 50°32' E 170°08'1 1.4 1008.4 11.2
2014-Sep-15 06:30N 50°33' E 170°09'2 0.6 1007.9 11.3
2014-Sep-15 03:30N 50°34' E 170°12'1 0.3 1006.9 11.2
2014-Sep-15 01:30N 50°34' E 170°12'0 0.0 1006.2 11.2
2014-Sep-15 00:30N 50°34' E 170°12'0 0.0 1006.3 11.2
2014-Sep-14 23:30N 50°34' E 170°12'6 2.0 1006.4 11.2
2014-Sep-14 20:30N 50°35' E 170°21'0 0.1 1006.3 11.2
2014-Sep-14 19:30N 50°35' E 170°21'0 0.3 1006.5 11.2
2014-Sep-14 18:30N 50°36' E 170°21'7 1.3 1006.5 11.2
2014-Sep-14 13:30N 50°39' E 170°30'0 0.0 1008.7 11.3
2014-Sep-14 09:30N 50°39' E 170°30'0 0.3 1010.7 11.6
2014-Sep-14 08:30N 50°39' E 170°30'2 2.2 1010.5 11.6
2014-Sep-14 07:30N 50°40' E 170°33'2 0.6 1010.7 11.6
2014-Sep-14 04:30N 50°40' E 170°36'0 0.3 1011.9 11.6
2014-Sep-14 03:30N 50°40' E 170°36'1 0.7 1012.2 11.6
2014-Sep-14 01:30N 50°41' E 170°38'4 0.6 1013.7 11.6
2014-Sep-13 18:30N 50°44' E 170°44'0 0.3 1015.8 11.1
2014-Sep-13 17:30N 50°43' E 170°44'1 0.3 1015.5 11.1
2014-Sep-13 15:30N 50°44' E 170°45'6 0.8 1016.2 11.1
2014-Sep-13 08:30N 50°47' E 170°53'3 0.7 1016.6 11.2
2014-Sep-13 04:30N 50°48' E 170°56'0 0.0 1015.6 11.2
2014-Sep-13 03:30N 50°48' E 170°56'0 0.1 1015.2 11.2
2014-Sep-13 02:30N 50°48' E 170°56'2 2.0 1015.0 11.2
2014-Sep-13 01:30N 50°49' E 170°59'5 0.6 1014.9 11.1
2014-Sep-12 17:30N 50°52' E 171°04'1 0.3 1013.2 11.1
2014-Sep-12 15:30N 50°53' E 171°04'3 0.3 1012.9 11.1
2014-Sep-12 07:30N 50°54' E 171°08'4 0.9 1010.8 11.2
2014-Sep-12 03:30N 50°57' E 171°12'0 0.0 1009.8 11.2
2014-Sep-12 01:30N 50°57' E 171°12'3 0.4 1009.3 11.2
2014-Sep-11 18:30N 50°59' E 171°14'0 0.2 1006.5 11.2
2014-Sep-11 16:30N 50°60' E 171°15'4 4.3 1005.4 11.2
2014-Sep-11 15:30N 51°03' E 171°18'0 0.0 1004.9 11.3
2014-Sep-11 14:30N 51°03' E 171°18'1 0.1 1004.4 11.3
2014-Sep-11 02:30N 51°04' E 171°19'0 0.2 1002.0 11.3
2014-Sep-11 00:30N 51°05' E 171°20'2 1.6 1002.3 11.3
2014-Sep-10 23:30N 51°06' E 171°21'0 0.0 1002.5 11.3
2014-Sep-10 22:30N 51°06' E 171°21'1 0.3 1002.8 11.3
2014-Sep-10 19:30N 51°07' E 171°22'1 0.3 1002.9 11.3
2014-Sep-10 16:30N 51°08' E 171°22'1 0.3 1002.7 11.3
2014-Sep-10 14:30N 51°08' E 171°23'1 0.2 1002.8 11.3
2014-Sep-10 08:30N 51°09' E 171°23'2 0.5 1003.3 11.3
2014-Sep-10 03:30N 51°11' E 171°25'2 0.8 1001.6 11.3
2014-Sep-10 00:30N 51°13' E 171°23'0 0.1 1001.6 11.3
2014-Sep-09 21:30N 51°13' E 171°23'0 0.1 1002.2 11.3
2014-Sep-09 19:30N 51°13' E 171°23'0 0.4 1002.4 11.3
2014-Sep-09 18:30N 51°14' E 171°23'2 0.9 1002.4 11.3
2014-Sep-09 16:30N 51°15' E 171°24'0 0.0 1001.9 11.3
2014-Sep-09 15:30N 51°15' E 171°24'2 0.3 1001.3 11.3
2014-Sep-09 09:30N 51°16' E 171°22'0 0.3 1004.0 11.3
2014-Sep-09 08:30N 51°17' E 171°22'1 0.2 1004.2 11.3
2014-Sep-09 01:30N 51°17' E 171°24'1 0.7 1005.0 11.2
2014-Sep-09 00:30N 51°18' E 171°24'2 1.1 1004.9 11.2
2014-Sep-08 22:30N 51°20' E 171°23'0 0.0 1004.9 11.2
2014-Sep-08 20:30N 51°20' E 171°23'0 0.0 1004.5 11.2
2014-Sep-08 18:30N 51°20' E 171°23'1 0.4 1003.8 11.2
2014-Sep-08 16:30N 51°21' E 171°23'4 0.3 1003.1 11.2
2014-Sep-08 05:30N 51°24' E 171°23'0 0.2 999.8 11.2
2014-Sep-08 03:30N 51°24' E 171°22'0 0.4 998.9 11.2
2014-Sep-08 02:30N 51°24' E 171°23'1 0.5 998.7 11.2
2014-Sep-08 01:30N 51°25' E 171°22'4 0.5 998.7 11.2
2014-Sep-07 17:30N 51°29' E 171°23'1 0.6 996.6 11.2
2014-Sep-07 15:30N 51°30' E 171°23'2 0.9 996.6 11.2
2014-Sep-07 13:30N 51°32' E 171°22'0 0.0 996.9 11.3
2014-Sep-07 09:30N 51°32' E 171°22'1 0.3 998.0 11.4
2014-Sep-07 07:30N 51°32' E 171°23'2 0.5 998.2 11.4
2014-Sep-07 03:30N 51°34' E 171°23'1 1.0 999.2 11.5
2014-Sep-07 02:30N 51°35' E 171°23'0 0.1 999.9 11.5
2014-Sep-07 00:30N 51°35' E 171°23'1 0.3 1000.8 11.5
2014-Sep-06 19:30N 51°36' E 171°22'0 0.2 1003.2 11.5
2014-Sep-06 17:30N 51°36' E 171°22'1 0.5 1003.2 11.5
2014-Sep-06 14:30N 51°37' E 171°24'1 1.0 1004.6 11.6
2014-Sep-06 13:30N 51°38' E 171°24'1 0.2 1005.0 11.6
2014-Sep-06 09:30N 51°39' E 171°24'0 0.5 1006.7 11.6
2014-Sep-06 08:30N 51°39' E 171°23'0 0.0 1006.8 11.6
2014-Sep-06 07:30N 51°39' E 171°23'1 0.9 1006.8 11.6
2014-Sep-06 06:30N 51°39' E 171°22'0 0.0 1006.9 11.6
2014-Sep-06 04:30N 51°39' E 171°22'0 0.1 1007.4 11.6
2014-Sep-06 01:30N 51°39' E 171°23'   1008.2 11.6

Dump ship's entire track history